Time;durP1;ratioP1;P1;durP2;ratioP2;P2;SDS_P1;SDS_P2;PMS_P1;PMS_P2;Temp;Humidity;BMP_temperature;BMP_pressure;BME280_temperature;BME280_humidity;BME280_pressure;Samples;Min_cycle;Max_cycle;Signal;HPM_P1;HPM_P2
2023/09/22 00:00:14;;;;;;;2.13;0.28;;;16.60;99.90;;;;;;5018575;28;20025;-70
2023/09/22 00:02:42;;;;;;;0.55;0.30;;;16.50;99.90;;;;;;5018279;28;20022;-70
2023/09/22 00:05:09;;;;;;;0.28;0.28;;;16.60;99.90;;;;;;5018913;28;20026;-70
2023/09/22 00:07:35;;;;;;;1.30;0.22;;;16.60;99.90;;;;;;5018781;28;20029;-70
2023/09/22 00:10:01;;;;;;;0.20;0.20;;;16.40;99.90;;;;;;5019129;28;20029;-70
2023/09/22 00:12:29;;;;;;;1.25;0.25;;;16.30;99.90;;;;;;5018965;28;20034;-70
2023/09/22 00:14:54;;;;;;;1.10;0.35;;;16.30;99.90;;;;;;5017961;28;20026;-70
2023/09/22 00:17:20;;;;;;;0.93;0.30;;;16.40;99.90;;;;;;5019001;28;20022;-70
2023/09/22 00:19:46;;;;;;;0.25;0.20;;;16.40;99.90;;;;;;5018900;28;20018;-70
2023/09/22 00:22:11;;;;;;;0.55;0.38;;;16.40;99.90;;;;;;5017926;28;20022;-70
2023/09/22 00:24:36;;;;;;;2.35;0.40;;;16.60;99.90;;;;;;5017855;28;20033;-70
2023/09/22 00:27:02;;;;;;;1.90;0.30;;;16.50;99.90;;;;;;5018628;28;20060;-70
2023/09/22 00:29:28;;;;;;;1.92;0.30;;;16.40;99.90;;;;;;5017726;28;20113;-70
2023/09/22 00:31:53;;;;;;;0.75;0.40;;;16.40;99.90;;;;;;5018888;28;20026;-70
2023/09/22 00:34:19;;;;;;;0.77;0.50;;;16.60;99.90;;;;;;5018553;28;20033;-70
2023/09/22 00:36:45;;;;;;;2.00;0.47;;;16.60;99.90;;;;;;5017640;28;20018;-71
2023/09/22 00:39:10;;;;;;;1.67;0.63;;;16.50;99.90;;;;;;5016940;28;20203;-70
2023/09/22 00:41:36;;;;;;;0.52;0.30;;;16.40;99.90;;;;;;5017753;28;20025;-69
2023/09/22 00:44:01;;;;;;;0.55;0.32;;;16.40;99.90;;;;;;5017477;28;20026;-70
2023/09/22 00:46:27;;;;;;;0.55;0.35;;;16.40;99.90;;;;;;5017517;28;20026;-70
2023/09/22 00:48:55;;;;;;;6.35;0.77;;;16.60;99.90;;;;;;5018341;28;20041;-70
2023/09/22 00:51:21;;;;;;;1.35;0.47;;;16.60;99.90;;;;;;5018321;28;20022;-70
2023/09/22 00:53:49;;;;;;;1.30;0.50;;;16.50;99.90;;;;;;5018004;28;20025;-70
2023/09/22 00:56:21;;;;;;;0.90;0.43;;;16.60;99.90;;;;;;5017238;28;20121;-70
2023/09/22 00:58:49;;;;;;;1.33;0.68;;;16.70;99.90;;;;;;5017466;28;20022;-70
2023/09/22 01:01:15;;;;;;;1.10;0.65;;;16.60;99.90;;;;;;5018080;28;20037;-69
2023/09/22 01:03:41;;;;;;;0.98;0.40;;;16.70;99.90;;;;;;5017331;28;20029;-68
2023/09/22 01:06:10;;;;;;;1.20;0.52;;;16.80;99.90;;;;;;5018509;28;20033;-68
2023/09/22 01:08:36;;;;;;;4.60;0.60;;;16.90;99.90;;;;;;5018444;28;20093;-68
2023/09/22 01:11:01;;;;;;;3.13;0.80;;;16.90;99.90;;;;;;5016987;28;20061;-68
2023/09/22 01:13:27;;;;;;;1.30;0.55;;;16.90;99.90;;;;;;5016994;28;20026;-68
2023/09/22 01:15:53;;;;;;;1.40;0.75;;;16.90;99.90;;;;;;5016957;28;20061;-68
2023/09/22 01:18:19;;;;;;;1.77;0.55;;;16.90;99.90;;;;;;5016865;28;20018;-68
2023/09/22 01:20:45;;;;;;;2.58;0.90;;;16.90;99.90;;;;;;5018272;28;20032;-68
2023/09/22 01:23:14;;;;;;;1.20;1.10;;;16.80;99.90;;;;;;5017632;28;20026;-68
2023/09/22 01:25:43;;;;;;;3.97;0.70;;;16.80;99.90;;;;;;5017799;28;20018;-68
2023/09/22 01:28:10;;;;;;;3.30;0.88;;;16.70;99.90;;;;;;5016564;28;20085;-68
2023/09/22 01:30:36;;;;;;;2.55;0.68;;;16.70;99.90;;;;;;5017915;28;20082;-68
2023/09/22 01:33:04;;;;;;;1.25;0.77;;;16.60;99.90;;;;;;5017824;28;20040;-68
2023/09/22 01:35:33;;;;;;;1.92;0.52;;;16.60;99.90;;;;;;5017457;28;20022;-68
2023/09/22 01:38:10;;;;;;;3.47;0.68;;;16.50;99.90;;;;;;5017624;28;20018;-68
2023/09/22 01:40:36;;;;;;;0.90;0.70;;;16.30;99.90;;;;;;5017679;28;20078;-69
2023/09/22 01:43:01;;;;;;;1.67;0.57;;;16.30;99.90;;;;;;5017623;28;20049;-68
2023/09/22 01:45:27;;;;;;;4.00;0.77;;;16.20;99.90;;;;;;5016850;28;20095;-68
2023/09/22 01:47:52;;;;;;;2.47;0.70;;;16.30;99.90;;;;;;5017194;28;20026;-68
2023/09/22 01:50:19;;;;;;;0.85;0.70;;;16.30;99.90;;;;;;5016372;28;20109;-68
2023/09/22 01:52:44;;;;;;;1.70;0.70;;;16.10;99.90;;;;;;5016349;28;20026;-68
2023/09/22 01:55:10;;;;;;;2.40;0.57;;;16.20;99.90;;;;;;5017134;28;20026;-68
2023/09/22 01:57:36;;;;;;;2.13;0.90;;;16.20;99.90;;;;;;5017187;28;20022;-68
2023/09/22 02:00:10;;;;;;;1.35;0.88;;;16.10;99.90;;;;;;5017391;28;20026;-68
2023/09/22 02:02:36;;;;;;;1.25;0.80;;;16.10;99.90;;;;;;5017251;28;20046;-68
2023/09/22 02:05:02;;;;;;;0.75;0.63;;;16.10;99.90;;;;;;5017248;28;20069;-68
2023/09/22 02:07:28;;;;;;;1.45;0.70;;;16.10;99.90;;;;;;5041299;22;20029;-64
2023/09/22 02:09:53;;;;;;;1.30;0.70;;;16.10;99.90;;;;;;5017225;28;20042;-64
2023/09/22 02:12:19;;;;;;;1.48;0.90;;;16.10;99.90;;;;;;5016625;28;20022;-64
2023/09/22 02:14:44;;;;;;;0.93;0.70;;;16.00;99.90;;;;;;5016190;28;20025;-64
2023/09/22 02:17:10;;;;;;;1.98;0.65;;;16.10;99.90;;;;;;5016886;28;20018;-64
2023/09/22 02:19:38;;;;;;;3.85;0.80;;;16.20;99.90;;;;;;5016983;28;20049;-64
2023/09/22 02:22:03;;;;;;;2.17;0.70;;;16.20;99.90;;;;;;5016601;28;20018;-64
2023/09/22 02:24:29;;;;;;;3.70;0.80;;;16.10;99.90;;;;;;5017311;28;20025;-64
2023/09/22 02:26:54;;;;;;;3.55;0.75;;;16.10;99.90;;;;;;5017115;28;20109;-64
2023/09/22 02:29:20;;;;;;;2.40;0.55;;;16.10;99.90;;;;;;5016023;28;20029;-64
2023/09/22 02:31:45;;;;;;;0.77;0.60;;;16.10;99.90;;;;;;5016018;28;20034;-64
2023/09/22 02:34:11;;;;;;;1.60;0.60;;;16.10;99.90;;;;;;5016354;28;20033;-64
2023/09/22 02:36:37;;;;;;;2.15;0.77;;;16.20;99.90;;;;;;5017241;28;20018;-64
2023/09/22 02:39:03;;;;;;;1.13;0.75;;;16.40;99.90;;;;;;5016026;28;20026;-64
2023/09/22 02:41:29;;;;;;;4.18;0.65;;;16.40;99.90;;;;;;5015939;28;20030;-64
2023/09/22 02:43:56;;;;;;;0.70;0.68;;;16.50;99.90;;;;;;5016232;28;20021;-64
2023/09/22 02:46:22;;;;;;;1.35;0.60;;;16.50;99.90;;;;;;5015848;28;20030;-64
2023/09/22 02:48:48;;;;;;;0.50;0.50;;;16.60;99.90;;;;;;5015730;28;20021;-64
2023/09/22 02:51:14;;;;;;;3.35;0.60;;;16.60;99.90;;;;;;5016281;28;20144;-63
2023/09/22 02:53:39;;;;;;;7.20;0.80;;;16.60;99.90;;;;;;5017090;28;20028;-64
2023/09/22 02:56:05;;;;;;;3.60;0.85;;;16.60;99.90;;;;;;5018140;28;20026;-76
2023/09/22 02:58:32;;;;;;;5.68;0.77;;;16.60;99.90;;;;;;5016015;28;20018;-76
2023/09/22 03:00:58;;;;;;;0.60;0.50;;;16.70;99.90;;;;;;5017294;28;20021;-76
2023/09/22 03:03:24;;;;;;;3.08;0.80;;;16.70;99.90;;;;;;5019608;28;20026;-76
2023/09/22 03:05:49;;;;;;;3.28;0.85;;;16.60;99.90;;;;;;5020132;28;20105;-76
2023/09/22 03:08:15;;;;;;;0.50;0.47;;;16.60;99.90;;;;;;5020125;28;20068;-76
2023/09/22 03:10:40;;;;;;;2.90;0.80;;;16.60;99.90;;;;;;5020247;28;20111;-76
2023/09/22 03:13:06;;;;;;;1.58;0.50;;;16.60;99.90;;;;;;5019124;28;20104;-76
2023/09/22 03:15:34;;;;;;;2.28;0.50;;;16.50;99.90;;;;;;5019329;28;20026;-76
2023/09/22 03:17:59;;;;;;;1.88;0.70;;;16.50;99.90;;;;;;5018932;28;20112;-76
2023/09/22 03:20:26;;;;;;;2.08;0.60;;;16.50;99.90;;;;;;5019458;28;20225;-75
2023/09/22 03:22:52;;;;;;;0.47;0.38;;;16.50;99.90;;;;;;5019765;28;20030;-76
2023/09/22 03:25:17;;;;;;;3.65;0.60;;;16.40;99.90;;;;;;5019814;28;20033;-76
2023/09/22 03:27:43;;;;;;;0.80;0.40;;;16.30;99.90;;;;;;5019146;28;20030;-76
2023/09/22 03:30:10;;;;;;;1.30;0.90;;;16.40;99.90;;;;;;5019070;28;20030;-75
2023/09/22 03:32:38;;;;;;;3.25;0.63;;;16.40;99.90;;;;;;5018895;28;20026;-76
2023/09/22 03:35:08;;;;;;;1.17;0.68;;;16.40;99.90;;;;;;5019540;28;20075;-75
2023/09/22 03:37:37;;;;;;;1.10;0.52;;;16.30;99.90;;;;;;5019548;28;20029;-75
2023/09/22 03:40:12;;;;;;;3.28;0.60;;;16.20;99.90;;;;;;5019534;28;20084;-76
2023/09/22 03:42:39;;;;;;;0.70;0.30;;;16.20;99.90;;;;;;5019722;28;20022;-76
2023/09/22 03:45:06;;;;;;;0.73;0.50;;;16.30;99.90;;;;;;5019605;28;20033;-75
2023/09/22 03:47:32;;;;;;;0.63;0.60;;;16.20;99.90;;;;;;5019397;28;20050;-76
2023/09/22 03:49:58;;;;;;;1.15;0.57;;;16.20;99.90;;;;;;5019380;28;20030;-76
2023/09/22 03:52:23;;;;;;;2.38;0.70;;;16.10;99.90;;;;;;5019256;28;20067;-76
2023/09/22 03:54:49;;;;;;;1.88;0.70;;;16.00;99.90;;;;;;5019395;28;20087;-76
2023/09/22 03:57:16;;;;;;;3.40;0.85;;;16.00;99.90;;;;;;5020769;28;20113;-66
2023/09/22 03:59:42;;;;;;;1.48;0.70;;;15.90;99.90;;;;;;5019836;28;20025;-65
2023/09/22 04:02:07;;;;;;;6.45;0.60;;;15.80;99.90;;;;;;5019493;28;20028;-64
2023/09/22 04:04:33;;;;;;;3.47;0.70;;;15.60;99.90;;;;;;5018317;28;20028;-63
2023/09/22 04:06:59;;;;;;;0.95;0.60;;;15.50;99.90;;;;;;5018406;28;20112;-64
2023/09/22 04:09:25;;;;;;;1.63;0.80;;;15.30;99.90;;;;;;5018616;28;20069;-64
2023/09/22 04:11:52;;;;;;;2.03;0.80;;;15.20;99.90;;;;;;5018949;28;20034;-63
2023/09/22 04:14:19;;;;;;;1.27;0.80;;;15.20;99.90;;;;;;5017988;28;20083;-64
2023/09/22 04:16:44;;;;;;;1.75;0.47;;;15.20;99.90;;;;;;5018879;28;20101;-63
2023/09/22 04:19:10;;;;;;;2.28;0.82;;;15.30;99.90;;;;;;5018747;28;20057;-64
2023/09/22 04:21:43;;;;;;;2.25;0.85;;;15.30;99.90;;;;;;5018859;28;20021;-64
2023/09/22 04:24:11;;;;;;;3.10;0.85;;;15.30;99.90;;;;;;5017957;28;20076;-64
2023/09/22 04:26:42;;;;;;;0.75;0.40;;;15.40;99.90;;;;;;5018046;28;20092;-63
2023/09/22 04:29:09;;;;;;;5.20;0.85;;;15.30;99.90;;;;;;5018923;28;20101;-64
2023/09/22 04:31:34;;;;;;;1.75;0.68;;;15.40;99.90;;;;;;5018459;28;20038;-64
2023/09/22 04:34:01;;;;;;;1.77;0.70;;;15.30;99.90;;;;;;5017784;28;20022;-63
2023/09/22 04:36:26;;;;;;;4.15;0.70;;;15.10;99.90;;;;;;5018934;28;20025;-64
2023/09/22 04:38:52;;;;;;;3.60;0.80;;;15.10;99.90;;;;;;5017509;28;20026;-64
2023/09/22 04:41:19;;;;;;;8.48;0.88;;;15.10;99.90;;;;;;5017518;28;20018;-64
2023/09/22 04:43:48;;;;;;;4.20;0.70;;;15.00;99.90;;;;;;5018351;28;20017;-64
2023/09/22 04:46:19;;;;;;;3.50;0.98;;;14.90;99.90;;;;;;5017611;28;20121;-63
2023/09/22 04:48:46;;;;;;;0.73;0.50;;;14.80;99.90;;;;;;5018131;28;20026;-63
2023/09/22 04:51:12;;;;;;;3.38;0.93;;;14.80;99.90;;;;;;5018191;28;20116;-64
2023/09/22 04:53:39;;;;;;;2.35;0.73;;;15.00;99.90;;;;;;5017211;28;20112;-64
2023/09/22 04:56:06;;;;;;;4.20;0.70;;;15.30;99.90;;;;;;5018073;28;20101;-64
2023/09/22 04:58:32;;;;;;;3.40;0.77;;;15.30;99.90;;;;;;5018371;28;20022;-64
2023/09/22 05:01:01;;;;;;;2.22;0.82;;;15.40;99.90;;;;;;5017259;28;20055;-64
2023/09/22 05:03:28;;;;;;;4.72;1.65;;;15.50;99.90;;;;;;5018104;28;20018;-63
2023/09/22 05:05:54;;;;;;;1.27;0.68;;;15.50;99.90;;;;;;5017101;28;20022;-64
2023/09/22 05:08:20;;;;;;;4.70;0.80;;;15.60;99.90;;;;;;5018117;28;20036;-64
2023/09/22 05:10:47;;;;;;;4.78;0.93;;;15.70;99.90;;;;;;5016989;28;20101;-64
2023/09/22 05:13:13;;;;;;;1.75;0.55;;;15.60;99.90;;;;;;5017784;28;20044;-64
2023/09/22 05:15:41;;;;;;;3.53;0.82;;;15.40;99.90;;;;;;5017227;28;20036;-64
2023/09/22 05:18:12;;;;;;;4.18;0.60;;;15.30;99.90;;;;;;5017064;28;20022;-64
2023/09/22 05:20:39;;;;;;;1.53;0.83;;;15.10;99.90;;;;;;5017012;28;20021;-64
2023/09/22 05:23:04;;;;;;;2.25;0.70;;;15.00;99.90;;;;;;5017010;28;20029;-64
2023/09/22 05:25:30;;;;;;;1.75;0.70;;;15.00;99.90;;;;;;5016330;28;20030;-64
2023/09/22 05:27:56;;;;;;;1.17;0.80;;;15.00;99.90;;;;;;5017640;28;20032;-64
2023/09/22 05:30:23;;;;;;;1.05;0.70;;;15.00;99.90;;;;;;5017600;28;20105;-64
2023/09/22 05:32:49;;;;;;;1.15;0.73;;;15.00;99.90;;;;;;5017020;28;20025;-64
2023/09/22 05:35:15;;;;;;;3.30;1.02;;;15.00;99.90;;;;;;5017396;28;20052;-64
2023/09/22 05:37:42;;;;;;;1.33;0.68;;;14.90;99.90;;;;;;5016476;28;20026;-64
2023/09/22 05:40:12;;;;;;;1.80;0.85;;;14.90;99.90;;;;;;5016605;28;20026;-64
2023/09/22 05:42:42;;;;;;;3.53;1.25;;;15.00;99.90;;;;;;5016678;28;20029;-64
2023/09/22 05:45:09;;;;;;;6.97;1.20;;;15.00;99.90;;;;;;5016575;28;20026;-64
2023/09/22 05:47:35;;;;;;;1.13;0.60;;;15.10;99.90;;;;;;5017317;28;20049;-64
2023/09/22 05:50:05;;;;;;;4.10;1.02;;;15.00;99.90;;;;;;5016409;28;20061;-64
2023/09/22 05:52:31;;;;;;;4.53;0.90;;;14.90;99.90;;;;;;5016511;28;20025;-64
2023/09/22 05:54:56;;;;;;;4.50;1.10;;;14.80;99.90;;;;;;5017180;28;20033;-64
2023/09/22 05:57:22;;;;;;;4.43;1.05;;;14.70;99.90;;;;;;5016882;28;20033;-64
2023/09/22 05:59:48;;;;;;;3.15;1.05;;;14.60;99.90;;;;;;5016626;28;20113;-63
2023/09/22 06:02:14;;;;;;;2.13;0.95;;;14.60;99.90;;;;;;5017202;28;20026;-64
2023/09/22 06:04:39;;;;;;;1.88;1.05;;;14.70;99.90;;;;;;5016683;28;20032;-64
2023/09/22 06:07:12;;;;;;;2.28;0.95;;;14.70;99.90;;;;;;5016217;28;20032;-64
2023/09/22 06:09:38;;;;;;;2.63;0.95;;;14.80;99.90;;;;;;5018008;28;20112;-64
2023/09/22 06:12:03;;;;;;;2.58;1.00;;;14.80;99.90;;;;;;5016099;28;20076;-64
2023/09/22 06:14:29;;;;;;;3.42;1.13;;;14.80;99.90;;;;;;5016072;28;20033;-64
2023/09/22 06:16:54;;;;;;;5.95;1.08;;;14.70;99.90;;;;;;5016302;28;20032;-63
2023/09/22 06:19:20;;;;;;;4.50;1.08;;;14.90;99.90;;;;;;5016070;28;20076;-64
2023/09/22 06:21:46;;;;;;;3.63;1.17;;;15.10;99.90;;;;;;5016424;28;20053;-63
2023/09/22 06:24:11;;;;;;;4.05;1.13;;;15.10;99.90;;;;;;5017125;28;20253;-64
2023/09/22 06:26:37;;;;;;;3.67;1.40;;;15.10;99.90;;;;;;5017278;28;20022;-64
2023/09/22 06:29:03;;;;;;;1.08;0.80;;;14.90;99.90;;;;;;5016469;28;20025;-64
2023/09/22 06:31:28;;;;;;;3.65;0.93;;;15.00;99.90;;;;;;5016853;28;20117;-64
2023/09/22 06:33:54;;;;;;;1.38;0.73;;;15.20;99.90;;;;;;5016293;28;20041;-64
2023/09/22 06:36:19;;;;;;;3.47;0.75;;;15.40;99.90;;;;;;5016933;28;20096;-64
2023/09/22 06:38:45;;;;;;;1.70;0.98;;;15.40;99.90;;;;;;5019844;28;20033;-64
2023/09/22 06:41:17;;;;;;;5.40;1.77;;;15.50;99.90;;;;;;5020065;28;20022;-64
2023/09/22 06:43:42;;;;;;;3.78;1.13;;;15.60;99.90;;;;;;5020478;28;20033;-64
2023/09/22 06:46:09;;;;;;;4.32;1.15;;;15.70;99.90;;;;;;5019771;28;20022;-64
2023/09/22 06:48:36;;;;;;;4.60;1.08;;;15.60;99.90;;;;;;5019454;28;20112;-63
2023/09/22 06:51:02;;;;;;;3.58;1.20;;;15.50;99.90;;;;;;5020609;28;20026;-64
2023/09/22 06:53:29;;;;;;;1.45;0.80;;;15.40;99.90;;;;;;5019620;28;20033;-63
2023/09/22 06:56:08;;;;;;;3.50;0.90;;;15.30;99.90;;;;;;5020307;28;20026;-64
2023/09/22 06:58:35;;;;;;;1.20;1.02;;;15.30;99.90;;;;;;5020357;28;20018;-64
2023/09/22 07:01:15;;;;;;;1.20;1.02;;;15.40;99.90;;;;;;5020179;28;20022;-64
2023/09/22 07:03:41;;;;;;;2.28;1.13;;;15.50;99.90;;;;;;5020152;28;20026;-64
2023/09/22 07:06:09;;;;;;;3.95;1.00;;;15.50;99.90;;;;;;5020068;28;20142;-64
2023/09/22 07:08:34;;;;;;;5.25;1.23;;;15.60;99.90;;;;;;5019340;28;20026;-64
2023/09/22 07:11:10;;;;;;;2.17;1.25;;;15.60;99.90;;;;;;5019600;28;20134;-64
2023/09/22 07:13:42;;;;;;;3.67;1.13;;;15.50;99.90;;;;;;5019212;28;20033;-64
2023/09/22 07:16:09;;;;;;;1.85;1.00;;;15.50;99.90;;;;;;5019071;28;20022;-63
2023/09/22 07:18:34;;;;;;;3.95;1.17;;;15.50;99.90;;;;;;5019186;28;20103;-64
2023/09/22 07:21:02;;;;;;;2.55;1.20;;;15.50;99.90;;;;;;5019459;28;20018;-64
2023/09/22 07:23:31;;;;;;;1.48;0.90;;;15.50;99.90;;;;;;5019027;28;20018;-64
2023/09/22 07:25:58;;;;;;;2.45;1.00;;;15.60;99.90;;;;;;5019625;28;20026;-64
2023/09/22 07:28:25;;;;;;;1.42;0.85;;;15.60;99.90;;;;;;5018840;28;20022;-64
2023/09/22 07:30:51;;;;;;;1.67;1.20;;;15.60;99.90;;;;;;5019702;28;20022;-64
2023/09/22 07:33:17;;;;;;;1.98;1.40;;;15.60;99.90;;;;;;5018968;28;20025;-64
2023/09/22 07:35:43;;;;;;;2.67;1.23;;;15.70;99.90;;;;;;5018761;28;20053;-64
2023/09/22 07:38:09;;;;;;;4.30;2.05;;;15.70;99.90;;;;;;5019450;28;20041;-64
2023/09/22 07:40:34;;;;;;;3.22;1.40;;;15.80;99.90;;;;;;5019080;28;20014;-64
2023/09/22 07:43:00;;;;;;;5.57;1.83;;;15.80;99.90;;;;;;5018893;28;20071;-63
2023/09/22 07:45:25;;;;;;;2.10;1.20;;;16.00;99.90;;;;;;5018826;28;20121;-63
2023/09/22 07:47:51;;;;;;;2.95;1.70;;;16.00;99.90;;;;;;5019065;28;20033;-64
2023/09/22 07:50:17;;;;;;;3.42;1.40;;;16.10;99.90;;;;;;5018822;28;20101;-63
2023/09/22 07:52:43;;;;;;;7.40;1.45;;;16.20;99.90;;;;;;5019095;28;20121;-65
2023/09/22 07:55:14;;;;;;;1.55;1.20;;;16.00;99.90;;;;;;5018411;28;20117;-64
2023/09/22 07:57:39;;;;;;;3.60;1.52;;;16.20;99.90;;;;;;5018299;28;20084;-63
2023/09/22 08:00:10;;;;;;;2.60;1.38;;;16.30;99.90;;;;;;5018332;28;20022;-64
2023/09/22 08:02:36;;;;;;;2.47;1.60;;;16.40;99.90;;;;;;5018411;28;20032;-64
2023/09/22 08:05:02;;;;;;;3.55;1.80;;;16.30;99.90;;;;;;5018599;28;20244;-64
2023/09/22 08:07:28;;;;;;;6.93;1.55;;;16.20;99.90;;;;;;5018232;28;20033;-64
2023/09/22 08:09:54;;;;;;;1.83;1.40;;;16.20;99.90;;;;;;5060833;22;20034;-64
2023/09/22 08:12:19;;;;;;;2.80;1.60;;;16.30;99.90;;;;;;5037790;28;20022;-64
2023/09/22 08:14:45;;;;;;;3.15;1.63;;;16.50;99.90;;;;;;5038679;28;20056;-64
2023/09/22 08:17:11;;;;;;;3.15;1.23;;;16.50;99.90;;;;;;5038204;28;20060;-64
2023/09/22 08:19:36;;;;;;;3.08;1.80;;;16.60;99.90;;;;;;5038895;28;20025;-64
2023/09/22 08:22:02;;;;;;;3.95;1.60;;;16.70;99.90;;;;;;5038671;28;20033;-64
2023/09/22 08:24:27;;;;;;;5.07;1.55;;;16.60;99.90;;;;;;5038517;28;20029;-64
2023/09/22 08:26:55;;;;;;;2.28;1.42;;;16.60;99.90;;;;;;5038266;28;20033;-64
2023/09/22 08:29:22;;;;;;;2.58;1.45;;;16.50;99.90;;;;;;5038480;28;20017;-64
2023/09/22 08:31:48;;;;;;;1.52;1.10;;;16.70;99.90;;;;;;5038639;28;20048;-64
2023/09/22 08:34:14;;;;;;;7.60;1.40;;;16.80;99.90;;;;;;5038568;28;20052;-64
2023/09/22 08:36:39;;;;;;;2.75;1.10;;;16.90;99.90;;;;;;5038283;28;20013;-64
2023/09/22 08:39:07;;;;;;;5.97;1.20;;;17.00;99.90;;;;;;5037782;28;20021;-64
2023/09/22 08:41:37;;;;;;;3.28;1.25;;;17.00;99.90;;;;;;5038536;28;20021;-64
2023/09/22 08:44:04;;;;;;;1.45;1.05;;;17.00;99.90;;;;;;5037510;28;20083;-64
2023/09/22 08:46:30;;;;;;;1.75;1.10;;;17.10;99.90;;;;;;5038120;28;20112;-64
2023/09/22 08:48:55;;;;;;;1.67;0.93;;;17.20;99.90;;;;;;5038056;28;20060;-64
2023/09/22 08:51:21;;;;;;;5.68;1.15;;;17.20;99.90;;;;;;5038289;28;20026;-64
2023/09/22 08:53:47;;;;;;;3.78;0.90;;;17.30;99.90;;;;;;5038178;28;20060;-64
2023/09/22 08:56:14;;;;;;;4.10;1.10;;;17.30;99.90;;;;;;5037065;28;20021;-64
2023/09/22 08:58:39;;;;;;;5.10;1.02;;;17.40;99.90;;;;;;5036407;28;20030;-63
2023/09/22 09:01:05;;;;;;;1.63;1.20;;;17.40;99.90;;;;;;5036929;28;20025;-64
2023/09/22 09:03:31;;;;;;;3.95;0.88;;;17.50;99.90;;;;;;5036876;28;20021;-64
2023/09/22 09:06:08;;;;;;;0.88;0.85;;;17.50;99.90;;;;;;5037711;28;20029;-64
2023/09/22 09:08:36;;;;;;;2.72;0.90;;;17.70;99.90;;;;;;5036778;28;20037;-64
2023/09/22 09:11:10;;;;;;;0.77;0.63;;;17.80;99.90;;;;;;5037779;28;20057;-63
2023/09/22 09:13:37;;;;;;;3.55;0.75;;;17.80;99.90;;;;;;5037505;28;20045;-64
2023/09/22 09:16:06;;;;;;;2.88;1.10;;;17.80;99.90;;;;;;5036995;28;20061;-63
2023/09/22 09:18:33;;;;;;;0.65;0.57;;;17.80;99.90;;;;;;5037531;28;20040;-63
2023/09/22 09:21:15;;;;;;;1.10;0.80;;;17.80;99.90;;;;;;5036547;28;20028;-64
2023/09/22 09:23:55;;;;;;;1.30;0.60;;;17.90;99.90;;;;;;5036784;28;20032;-64
2023/09/22 09:26:26;;;;;;;0.55;0.50;;;17.90;99.90;;;;;;5036585;28;20033;-64
2023/09/22 09:28:53;;;;;;;;;;;17.80;99.90;;;;;;5037958;28;20044;-64
2023/09/22 09:31:18;;;;;;;0.75;0.60;;;17.70;99.90;;;;;;5037387;28;19928;-64
2023/09/22 09:33:52;;;;;;;2.80;0.80;;;17.80;99.90;;;;;;5037461;28;20025;-64
2023/09/22 09:36:18;;;;;;;4.32;1.52;;;17.80;99.90;;;;;;5037615;28;20017;-64
2023/09/22 09:38:43;;;;;;;4.20;1.10;;;18.00;99.90;;;;;;5036456;28;20079;-64
2023/09/22 09:41:11;;;;;;;1.27;0.68;;;18.10;99.90;;;;;;5036403;28;20078;-64
2023/09/22 09:43:37;;;;;;;1.38;0.70;;;18.30;99.90;;;;;;5036235;28;20075;-64
2023/09/22 09:46:05;;;;;;;1.17;0.45;;;18.50;99.90;;;;;;5036323;28;20029;-64
2023/09/22 09:48:37;;;;;;;7.03;1.00;;;18.50;99.90;;;;;;5036578;28;20026;-64
2023/09/22 09:51:05;;;;;;;1.27;0.40;;;18.50;99.90;;;;;;5036221;28;20021;-64
2023/09/22 09:53:41;;;;;;;0.80;0.40;;;18.30;99.90;;;;;;5037082;28;20017;-64
2023/09/22 09:56:08;;;;;;;2.65;1.00;;;18.30;99.90;;;;;;5037366;28;20029;-64
2023/09/22 09:58:35;;;;;;;2.63;0.93;;;18.30;99.90;;;;;;5037037;28;20029;-64
2023/09/22 10:01:02;;;;;;;1.92;0.98;;;18.40;99.90;;;;;;5036228;28;20029;-66
2023/09/22 10:03:28;;;;;;;1.73;1.45;;;18.50;99.90;;;;;;5036157;28;20026;-64
2023/09/22 10:05:56;;;;;;;2.13;0.70;;;18.60;99.90;;;;;;5037449;28;20036;-64
2023/09/22 10:08:24;;;;;;;3.47;0.90;;;18.70;99.90;;;;;;5036882;28;20029;-64
2023/09/22 10:10:51;;;;;;;1.73;0.60;;;18.60;99.90;;;;;;5039156;28;20022;-64
2023/09/22 10:13:17;;;;;;;1.17;0.60;;;18.60;99.90;;;;;;5040091;28;20025;-64
2023/09/22 10:16:04;;;;;;;1.02;0.60;;;18.70;99.90;;;;;;5041316;28;20029;-64
2023/09/22 10:18:44;;;;;;;3.72;0.80;;;18.90;99.90;;;;;;5040834;28;20143;-64
2023/09/22 10:21:38;;;;;;;2.83;0.73;;;18.90;99.90;;;;;;5040033;28;20022;-64
2023/09/22 10:24:23;;;;;;;1.55;0.73;;;18.80;99.90;;;;;;5041104;28;20052;-64
2023/09/22 10:26:58;;;;;;;1.25;0.70;;;18.60;99.90;;;;;;5040761;28;20045;-64
2023/09/22 10:29:33;;;;;;;2.38;0.68;;;18.60;99.90;;;;;;5040838;28;20021;-64
2023/09/22 10:32:21;;;;;;;5.03;1.95;;;18.60;99.90;;;;;;5040562;28;20036;-64
2023/09/22 10:35:05;;;;;;;2.25;0.77;;;18.60;99.90;;;;;;5040617;28;20068;-64
2023/09/22 10:37:33;;;;;;;3.60;0.90;;;18.50;99.90;;;;;;5040330;28;20025;-64
2023/09/22 10:40:09;;;;;;;3.15;0.55;;;18.90;99.90;;;;;;5040441;28;20075;-64
2023/09/22 10:42:49;;;;;;;3.10;0.50;;;19.40;99.90;;;;;;5039683;28;20045;-64
2023/09/22 10:45:17;;;;;;;4.25;0.90;;;20.00;99.90;;;;;;5040801;28;20021;-64
2023/09/22 10:47:49;;;;;;;1.63;0.68;;;20.60;99.90;;;;;;5040908;28;20033;-64
2023/09/22 10:50:21;;;;;;;;;;;20.80;99.90;;;;;;5040751;28;20021;-64
2023/09/22 10:52:53;;;;;;;9.40;0.93;;;20.90;99.90;;;;;;5040377;28;19905;-64
2023/09/22 10:55:26;;;;;;;1.67;1.02;;;21.00;99.90;;;;;;5039259;28;20025;-64
2023/09/22 10:57:52;;;;;;;2.13;0.88;;;20.90;99.90;;;;;;5040454;28;20071;-64
2023/09/22 11:00:18;;;;;;;4.47;1.27;;;21.00;99.90;;;;;;5039336;28;20032;-64
2023/09/22 11:02:44;;;;;;;1.13;0.40;;;21.20;99.90;;;;;;5040628;28;20100;-64
2023/09/22 11:05:15;;;;;;;1.67;0.70;;;21.30;99.90;;;;;;5039264;28;20060;-64
2023/09/22 11:07:44;;;;;;;1.02;0.82;;;21.50;99.90;;;;;;5040444;28;20087;-64
2023/09/22 11:10:18;;;;;;;1.95;0.65;;;22.00;99.90;;;;;;5040028;28;20048;-64
2023/09/22 11:12:48;;;;;;;3.65;0.77;;;22.10;99.90;;;;;;5040245;28;20160;-64
2023/09/22 11:15:14;;;;;;;1.55;0.82;;;22.10;99.90;;;;;;5040100;28;20048;-64
2023/09/22 11:17:42;;;;;;;2.75;1.10;;;22.10;99.90;;;;;;5038920;28;20021;-64
2023/09/22 11:20:15;;;;;;;1.33;0.43;;;22.20;99.90;;;;;;5040058;28;20017;-64
2023/09/22 11:22:42;;;;;;;2.03;0.70;;;22.10;99.90;;;;;;5039653;28;20013;-64
2023/09/22 11:25:11;;;;;;;2.67;0.70;;;21.80;99.90;;;;;;5039675;28;20028;-64
2023/09/22 11:27:50;;;;;;;2.17;0.70;;;21.10;99.90;;;;;;5039688;28;20140;-64
2023/09/22 11:30:19;;;;;;;3.03;0.70;;;20.60;99.90;;;;;;5039979;28;20100;-64
2023/09/22 11:32:46;;;;;;;2.78;0.68;;;20.20;99.90;;;;;;5039847;28;20027;-64
2023/09/22 11:35:27;;;;;;;3.85;0.73;;;19.90;99.90;;;;;;5039256;28;20021;-64
2023/09/22 11:37:53;;;;;;;2.92;0.82;;;19.90;99.90;;;;;;5039652;28;20021;-64
2023/09/22 11:40:20;;;;;;;2.38;1.08;;;20.60;99.90;;;;;;5039756;28;20090;-64
2023/09/22 11:42:47;;;;;;;2.85;0.93;;;21.60;99.90;;;;;;5039273;28;20024;-64
2023/09/22 11:45:19;;;;;;;1.75;0.63;;;22.20;99.90;;;;;;5039483;28;20026;-64
2023/09/22 11:47:45;;;;;;;1.67;1.00;;;22.60;99.90;;;;;;5039636;28;20032;-64
2023/09/22 11:50:26;;;;;;;2.47;1.00;;;22.40;99.90;;;;;;5039139;28;20025;-64
2023/09/22 11:52:54;;;;;;;1.17;0.93;;;22.20;99.90;;;;;;5039375;28;20067;-64
2023/09/22 11:55:20;;;;;;;2.20;0.88;;;22.60;99.90;;;;;;5039109;28;20037;-64
2023/09/22 11:57:45;;;;;;;1.10;0.73;;;23.20;99.90;;;;;;5039446;28;20101;-64
2023/09/22 12:00:14;;;;;;;1.48;0.70;;;23.70;99.90;;;;;;5038548;28;20025;-64
2023/09/22 12:02:39;;;;;;;1.40;0.90;;;24.00;99.90;;;;;;5039023;28;20018;-64
2023/09/22 12:05:06;;;;;;;5.47;0.95;;;24.30;99.90;;;;;;5039278;28;20040;-64
2023/09/22 12:07:32;;;;;;;2.47;1.13;;;24.40;99.90;;;;;;5037869;28;20026;-64
2023/09/22 12:09:58;;;;;;;1.63;0.80;;;24.70;99.90;;;;;;5038001;28;20039;-64
2023/09/22 12:12:25;;;;;;;3.00;1.00;;;24.80;99.90;;;;;;5038832;28;20022;-64
2023/09/22 12:14:50;;;;;;;2.13;1.08;;;24.90;99.90;;;;;;5038835;28;20022;-65
2023/09/22 12:17:16;;;;;;;3.70;1.02;;;24.80;99.90;;;;;;5037894;28;20053;-64
2023/09/22 12:19:42;;;;;;;2.28;0.77;;;25.00;99.90;;;;;;5038570;28;20093;-65
2023/09/22 12:22:07;;;;;;;4.18;0.98;;;25.60;99.90;;;;;;5038764;28;20026;-67
2023/09/22 12:24:33;;;;;;;2.78;0.98;;;26.30;99.90;;;;;;5037757;28;20036;-67
2023/09/22 12:26:58;;;;;;;2.75;1.00;;;26.50;98.20;;;;;;5038717;28;20025;-65
2023/09/22 12:29:24;;;;;;;4.82;1.40;;;26.90;96.90;;;;;;5038389;28;20099;-64
2023/09/22 12:31:50;;;;;;;2.50;1.08;;;26.20;95.60;;;;;;5037592;28;20029;-64
2023/09/22 12:34:17;;;;;;;3.80;1.00;;;25.20;97.10;;;;;;5037215;28;20032;-64
2023/09/22 12:36:43;;;;;;;0.95;0.63;;;24.90;96.70;;;;;;5038326;28;20032;-64
2023/09/22 12:39:11;;;;;;;3.00;1.05;;;24.40;98.30;;;;;;5037268;28;20139;-64
2023/09/22 12:41:36;;;;;;;4.05;1.15;;;24.20;99.30;;;;;;5037339;28;20021;-64
2023/09/22 12:44:02;;;;;;;4.30;0.73;;;24.60;97.80;;;;;;5038363;28;20104;-64
2023/09/22 12:46:28;;;;;;;2.40;0.80;;;25.10;96.90;;;;;;5037300;28;20075;-64
2023/09/22 12:48:53;;;;;;;1.55;0.60;;;24.90;97.00;;;;;;5037136;28;20029;-64